sensor_id;sensor_type;location;lat;lon;timestamp;P1;durP1;ratioP1;P2;durP2;ratioP2
7557;SDS011;3820;51.098;13.716;2023-04-03T00:00:35;4.57;;;2.30;;
7557;SDS011;3820;51.098;13.716;2023-04-03T00:03:02;7.17;;;2.40;;
7557;SDS011;3820;51.098;13.716;2023-04-03T00:05:28;8.33;;;2.50;;
7557;SDS011;3820;51.098;13.716;2023-04-03T00:07:55;5.17;;;2.47;;
7557;SDS011;3820;51.098;13.716;2023-04-03T00:10:22;6.40;;;2.43;;
7557;SDS011;3820;51.098;13.716;2023-04-03T00:12:48;4.77;;;2.57;;
7557;SDS011;3820;51.098;13.716;2023-04-03T00:15:15;6.17;;;2.40;;
7557;SDS011;3820;51.098;13.716;2023-04-03T00:17:41;5.33;;;2.23;;
7557;SDS011;3820;51.098;13.716;2023-04-03T00:20:08;6.00;;;2.20;;
7557;SDS011;3820;51.098;13.716;2023-04-03T00:22:34;4.87;;;2.47;;
7557;SDS011;3820;51.098;13.716;2023-04-03T00:25:01;7.13;;;2.60;;
7557;SDS011;3820;51.098;13.716;2023-04-03T00:27:33;6.77;;;2.20;;
7557;SDS011;3820;51.098;13.716;2023-04-03T00:29:59;6.23;;;2.40;;
7557;SDS011;3820;51.098;13.716;2023-04-03T00:32:26;5.87;;;2.40;;
7557;SDS011;3820;51.098;13.716;2023-04-03T00:34:52;7.40;;;2.30;;
7557;SDS011;3820;51.098;13.716;2023-04-03T00:37:19;5.27;;;2.10;;
7557;SDS011;3820;51.098;13.716;2023-04-03T00:39:46;8.87;;;2.27;;
7557;SDS011;3820;51.098;13.716;2023-04-03T00:42:13;5.17;;;2.70;;
7557;SDS011;3820;51.098;13.716;2023-04-03T00:47:07;5.13;;;2.30;;
7557;SDS011;3820;51.098;13.716;2023-04-03T00:49:35;5.37;;;2.80;;
7557;SDS011;3820;51.098;13.716;2023-04-03T00:52:03;4.67;;;2.40;;
7557;SDS011;3820;51.098;13.716;2023-04-03T00:54:37;4.37;;;2.20;;
7557;SDS011;3820;51.098;13.716;2023-04-03T00:57:03;5.67;;;2.47;;
7557;SDS011;3820;51.098;13.716;2023-04-03T00:59:33;5.40;;;2.30;;
7557;SDS011;3820;51.098;13.716;2023-04-03T01:02:02;8.67;;;3.10;;
7557;SDS011;3820;51.098;13.716;2023-04-03T01:04:30;6.50;;;2.80;;
7557;SDS011;3820;51.098;13.716;2023-04-03T01:07:04;5.23;;;2.50;;
7557;SDS011;3820;51.098;13.716;2023-04-03T01:09:35;7.53;;;2.73;;
7557;SDS011;3820;51.098;13.716;2023-04-03T01:14:50;6.77;;;2.77;;
7557;SDS011;3820;51.098;13.716;2023-04-03T01:28:08;7.57;;;2.70;;
7557;SDS011;3820;51.098;13.716;2023-04-03T01:30:45;7.13;;;2.83;;
7557;SDS011;3820;51.098;13.716;2023-04-03T01:33:16;5.87;;;2.60;;
7557;SDS011;3820;51.098;13.716;2023-04-03T01:35:43;4.77;;;2.23;;
7557;SDS011;3820;51.098;13.716;2023-04-03T01:38:10;6.97;;;2.87;;
7557;SDS011;3820;51.098;13.716;2023-04-03T01:40:37;7.17;;;2.53;;
7557;SDS011;3820;51.098;13.716;2023-04-03T01:43:04;5.73;;;2.80;;
7557;SDS011;3820;51.098;13.716;2023-04-03T01:45:30;6.70;;;2.30;;
7557;SDS011;3820;51.098;13.716;2023-04-03T01:47:57;6.53;;;2.97;;
7557;SDS011;3820;51.098;13.716;2023-04-03T01:50:24;4.37;;;2.53;;
7557;SDS011;3820;51.098;13.716;2023-04-03T01:52:50;9.33;;;2.73;;
7557;SDS011;3820;51.098;13.716;2023-04-03T01:55:17;8.23;;;3.03;;
7557;SDS011;3820;51.098;13.716;2023-04-03T01:57:44;10.83;;;2.60;;
7557;SDS011;3820;51.098;13.716;2023-04-03T02:00:11;7.40;;;2.60;;
7557;SDS011;3820;51.098;13.716;2023-04-03T02:02:38;6.13;;;2.73;;
7557;SDS011;3820;51.098;13.716;2023-04-03T02:05:05;8.43;;;2.93;;
7557;SDS011;3820;51.098;13.716;2023-04-03T02:07:33;5.90;;;2.73;;
7557;SDS011;3820;51.098;13.716;2023-04-03T02:09:59;6.67;;;2.90;;
7557;SDS011;3820;51.098;13.716;2023-04-03T02:12:27;6.43;;;2.87;;
7557;SDS011;3820;51.098;13.716;2023-04-03T02:14:54;5.97;;;2.67;;
7557;SDS011;3820;51.098;13.716;2023-04-03T02:17:20;7.60;;;2.70;;
7557;SDS011;3820;51.098;13.716;2023-04-03T02:19:47;5.83;;;2.57;;
7557;SDS011;3820;51.098;13.716;2023-04-03T02:22:13;6.30;;;2.40;;
7557;SDS011;3820;51.098;13.716;2023-04-03T02:24:41;6.33;;;2.83;;
7557;SDS011;3820;51.098;13.716;2023-04-03T02:27:08;5.23;;;2.47;;
7557;SDS011;3820;51.098;13.716;2023-04-03T02:29:35;7.23;;;3.07;;
7557;SDS011;3820;51.098;13.716;2023-04-03T02:32:01;8.60;;;2.80;;
7557;SDS011;3820;51.098;13.716;2023-04-03T02:34:28;6.77;;;2.80;;
7557;SDS011;3820;51.098;13.716;2023-04-03T02:36:55;5.87;;;2.73;;
7557;SDS011;3820;51.098;13.716;2023-04-03T02:39:22;5.50;;;2.43;;
7557;SDS011;3820;51.098;13.716;2023-04-03T02:41:48;7.77;;;2.70;;
7557;SDS011;3820;51.098;13.716;2023-04-03T02:44:15;8.60;;;2.67;;
7557;SDS011;3820;51.098;13.716;2023-04-03T02:46:41;5.20;;;2.53;;
7557;SDS011;3820;51.098;13.716;2023-04-03T02:49:09;5.97;;;3.27;;
7557;SDS011;3820;51.098;13.716;2023-04-03T02:51:35;5.93;;;2.60;;
7557;SDS011;3820;51.098;13.716;2023-04-03T02:54:02;5.87;;;2.70;;
7557;SDS011;3820;51.098;13.716;2023-04-03T02:56:28;6.80;;;2.50;;
7557;SDS011;3820;51.098;13.716;2023-04-03T02:58:55;8.63;;;2.90;;
7557;SDS011;3820;51.098;13.716;2023-04-03T03:01:23;6.40;;;2.80;;
7557;SDS011;3820;51.098;13.716;2023-04-03T03:03:50;5.17;;;2.60;;
7557;SDS011;3820;51.098;13.716;2023-04-03T03:06:17;8.43;;;2.70;;
7557;SDS011;3820;51.098;13.716;2023-04-03T03:08:43;5.77;;;3.00;;
7557;SDS011;3820;51.098;13.716;2023-04-03T03:11:10;5.63;;;2.60;;
7557;SDS011;3820;51.098;13.716;2023-04-03T03:13:37;7.40;;;2.87;;
7557;SDS011;3820;51.098;13.716;2023-04-03T03:16:05;9.73;;;3.10;;
7557;SDS011;3820;51.098;13.716;2023-04-03T03:18:32;5.67;;;2.60;;
7557;SDS011;3820;51.098;13.716;2023-04-03T03:21:00;5.37;;;2.90;;
7557;SDS011;3820;51.098;13.716;2023-04-03T03:23:28;8.47;;;3.30;;
7557;SDS011;3820;51.098;13.716;2023-04-03T03:25:57;9.13;;;3.13;;
7557;SDS011;3820;51.098;13.716;2023-04-03T03:28:24;7.27;;;3.17;;
7557;SDS011;3820;51.098;13.716;2023-04-03T03:30:51;7.87;;;3.27;;
7557;SDS011;3820;51.098;13.716;2023-04-03T03:33:18;10.07;;;3.20;;
7557;SDS011;3820;51.098;13.716;2023-04-03T03:35:44;6.07;;;3.30;;
7557;SDS011;3820;51.098;13.716;2023-04-03T03:38:12;8.80;;;3.27;;
7557;SDS011;3820;51.098;13.716;2023-04-03T03:40:39;6.67;;;3.17;;
7557;SDS011;3820;51.098;13.716;2023-04-03T03:43:05;10.80;;;3.80;;
7557;SDS011;3820;51.098;13.716;2023-04-03T03:45:32;7.10;;;3.30;;
7557;SDS011;3820;51.098;13.716;2023-04-03T03:47:58;7.13;;;3.20;;
7557;SDS011;3820;51.098;13.716;2023-04-03T03:50:25;11.00;;;3.63;;
7557;SDS011;3820;51.098;13.716;2023-04-03T03:52:52;8.93;;;3.23;;
7557;SDS011;3820;51.098;13.716;2023-04-03T03:55:18;8.00;;;3.37;;
7557;SDS011;3820;51.098;13.716;2023-04-03T03:57:45;6.53;;;2.63;;
7557;SDS011;3820;51.098;13.716;2023-04-03T04:00:12;6.37;;;3.30;;
7557;SDS011;3820;51.098;13.716;2023-04-03T04:02:39;6.60;;;3.43;;
7557;SDS011;3820;51.098;13.716;2023-04-03T04:05:06;9.53;;;3.17;;
7557;SDS011;3820;51.098;13.716;2023-04-03T04:07:33;10.73;;;3.30;;
7557;SDS011;3820;51.098;13.716;2023-04-03T04:09:59;9.77;;;3.43;;
7557;SDS011;3820;51.098;13.716;2023-04-03T04:12:26;6.27;;;3.20;;
7557;SDS011;3820;51.098;13.716;2023-04-03T04:14:53;7.67;;;3.23;;
7557;SDS011;3820;51.098;13.716;2023-04-03T04:17:19;8.87;;;3.03;;
7557;SDS011;3820;51.098;13.716;2023-04-03T04:19:46;10.40;;;3.57;;
7557;SDS011;3820;51.098;13.716;2023-04-03T04:22:12;10.17;;;4.23;;
7557;SDS011;3820;51.098;13.716;2023-04-03T04:24:39;6.47;;;3.00;;
7557;SDS011;3820;51.098;13.716;2023-04-03T04:27:06;9.60;;;3.10;;
7557;SDS011;3820;51.098;13.716;2023-04-03T04:29:33;11.60;;;3.10;;
7557;SDS011;3820;51.098;13.716;2023-04-03T04:32:02;5.50;;;2.83;;
7557;SDS011;3820;51.098;13.716;2023-04-03T04:34:30;9.50;;;3.10;;
7557;SDS011;3820;51.098;13.716;2023-04-03T04:36:56;9.73;;;3.33;;
7557;SDS011;3820;51.098;13.716;2023-04-03T04:39:23;6.60;;;3.20;;
7557;SDS011;3820;51.098;13.716;2023-04-03T04:41:50;7.40;;;3.07;;
7557;SDS011;3820;51.098;13.716;2023-04-03T04:44:16;8.30;;;3.33;;
7557;SDS011;3820;51.098;13.716;2023-04-03T04:46:43;10.23;;;3.67;;
7557;SDS011;3820;51.098;13.716;2023-04-03T04:49:11;8.73;;;3.30;;
7557;SDS011;3820;51.098;13.716;2023-04-03T04:51:38;9.60;;;3.13;;
7557;SDS011;3820;51.098;13.716;2023-04-03T04:54:17;7.43;;;3.43;;
7557;SDS011;3820;51.098;13.716;2023-04-03T04:56:43;5.90;;;2.97;;
7557;SDS011;3820;51.098;13.716;2023-04-03T04:59:10;8.37;;;3.40;;
7557;SDS011;3820;51.098;13.716;2023-04-03T05:01:36;7.03;;;3.57;;
7557;SDS011;3820;51.098;13.716;2023-04-03T05:04:03;7.40;;;3.47;;
7557;SDS011;3820;51.098;13.716;2023-04-03T05:06:30;9.57;;;3.57;;
7557;SDS011;3820;51.098;13.716;2023-04-03T05:08:58;6.43;;;3.23;;
7557;SDS011;3820;51.098;13.716;2023-04-03T05:11:25;9.07;;;4.63;;
7557;SDS011;3820;51.098;13.716;2023-04-03T05:13:51;11.70;;;4.20;;
7557;SDS011;3820;51.098;13.716;2023-04-03T05:16:18;13.50;;;4.20;;
7557;SDS011;3820;51.098;13.716;2023-04-03T05:18:45;9.70;;;3.83;;
7557;SDS011;3820;51.098;13.716;2023-04-03T05:21:12;8.30;;;3.93;;
7557;SDS011;3820;51.098;13.716;2023-04-03T05:23:38;10.90;;;3.83;;
7557;SDS011;3820;51.098;13.716;2023-04-03T05:26:05;12.00;;;3.70;;
7557;SDS011;3820;51.098;13.716;2023-04-03T05:28:32;6.37;;;3.03;;
7557;SDS011;3820;51.098;13.716;2023-04-03T05:30:59;11.50;;;3.70;;
7557;SDS011;3820;51.098;13.716;2023-04-03T05:33:26;9.40;;;3.50;;
7557;SDS011;3820;51.098;13.716;2023-04-03T05:35:53;10.27;;;3.47;;
7557;SDS011;3820;51.098;13.716;2023-04-03T05:38:20;7.70;;;3.23;;
7557;SDS011;3820;51.098;13.716;2023-04-03T05:40:47;8.10;;;3.70;;
7557;SDS011;3820;51.098;13.716;2023-04-03T05:43:13;8.27;;;3.40;;
7557;SDS011;3820;51.098;13.716;2023-04-03T05:45:40;11.47;;;3.20;;
7557;SDS011;3820;51.098;13.716;2023-04-03T05:48:07;11.13;;;3.50;;
7557;SDS011;3820;51.098;13.716;2023-04-03T05:50:33;7.70;;;3.40;;
7557;SDS011;3820;51.098;13.716;2023-04-03T05:53:00;8.63;;;4.10;;
7557;SDS011;3820;51.098;13.716;2023-04-03T05:55:28;9.57;;;3.83;;
7557;SDS011;3820;51.098;13.716;2023-04-03T05:57:55;7.33;;;3.30;;
7557;SDS011;3820;51.098;13.716;2023-04-03T06:00:21;9.97;;;3.50;;
7557;SDS011;3820;51.098;13.716;2023-04-03T06:02:48;9.13;;;3.53;;
7557;SDS011;3820;51.098;13.716;2023-04-03T06:05:15;8.10;;;3.40;;
7557;SDS011;3820;51.098;13.716;2023-04-03T06:07:42;7.77;;;3.37;;
7557;SDS011;3820;51.098;13.716;2023-04-03T06:10:11;7.50;;;3.27;;
7557;SDS011;3820;51.098;13.716;2023-04-03T06:12:38;10.70;;;3.30;;
7557;SDS011;3820;51.098;13.716;2023-04-03T06:15:06;8.77;;;3.40;;
7557;SDS011;3820;51.098;13.716;2023-04-03T06:17:34;8.87;;;3.07;;
7557;SDS011;3820;51.098;13.716;2023-04-03T06:20:00;7.70;;;3.60;;
7557;SDS011;3820;51.098;13.716;2023-04-03T06:22:27;7.30;;;3.33;;
7557;SDS011;3820;51.098;13.716;2023-04-03T06:24:56;9.20;;;3.57;;
7557;SDS011;3820;51.098;13.716;2023-04-03T06:27:23;13.03;;;3.47;;
7557;SDS011;3820;51.098;13.716;2023-04-03T06:29:50;7.80;;;3.77;;
7557;SDS011;3820;51.098;13.716;2023-04-03T06:32:17;10.93;;;3.53;;
7557;SDS011;3820;51.098;13.716;2023-04-03T06:34:43;14.37;;;3.30;;
7557;SDS011;3820;51.098;13.716;2023-04-03T06:37:14;9.30;;;3.30;;
7557;SDS011;3820;51.098;13.716;2023-04-03T06:39:41;9.83;;;3.23;;
7557;SDS011;3820;51.098;13.716;2023-04-03T06:42:08;9.10;;;3.27;;
7557;SDS011;3820;51.098;13.716;2023-04-03T06:44:35;7.97;;;2.87;;
7557;SDS011;3820;51.098;13.716;2023-04-03T06:47:02;7.23;;;3.17;;
7557;SDS011;3820;51.098;13.716;2023-04-03T06:49:28;7.60;;;3.00;;
7557;SDS011;3820;51.098;13.716;2023-04-03T06:51:55;8.17;;;3.00;;
7557;SDS011;3820;51.098;13.716;2023-04-03T06:54:24;5.77;;;3.17;;
7557;SDS011;3820;51.098;13.716;2023-04-03T06:56:51;6.07;;;2.97;;
7557;SDS011;3820;51.098;13.716;2023-04-03T06:59:18;9.33;;;3.57;;
7557;SDS011;3820;51.098;13.716;2023-04-03T07:01:44;10.47;;;3.20;;
7557;SDS011;3820;51.098;13.716;2023-04-03T07:04:11;12.63;;;3.77;;
7557;SDS011;3820;51.098;13.716;2023-04-03T07:06:37;10.80;;;3.80;;
7557;SDS011;3820;51.098;13.716;2023-04-03T07:09:04;6.83;;;3.67;;
7557;SDS011;3820;51.098;13.716;2023-04-03T07:11:30;11.80;;;4.13;;
7557;SDS011;3820;51.098;13.716;2023-04-03T07:13:57;8.00;;;3.17;;
7557;SDS011;3820;51.098;13.716;2023-04-03T07:16:24;6.30;;;3.20;;
7557;SDS011;3820;51.098;13.716;2023-04-03T07:18:51;8.47;;;3.80;;
7557;SDS011;3820;51.098;13.716;2023-04-03T07:21:19;6.73;;;2.90;;
7557;SDS011;3820;51.098;13.716;2023-04-03T07:23:45;7.03;;;3.07;;
7557;SDS011;3820;51.098;13.716;2023-04-03T07:26:12;8.00;;;3.50;;
7557;SDS011;3820;51.098;13.716;2023-04-03T07:28:38;9.00;;;3.20;;
7557;SDS011;3820;51.098;13.716;2023-04-03T07:31:09;8.57;;;3.67;;
7557;SDS011;3820;51.098;13.716;2023-04-03T07:33:38;9.50;;;3.73;;
7557;SDS011;3820;51.098;13.716;2023-04-03T07:36:06;8.00;;;3.77;;
7557;SDS011;3820;51.098;13.716;2023-04-03T07:38:36;8.83;;;3.40;;
7557;SDS011;3820;51.098;13.716;2023-04-03T07:41:03;7.00;;;3.60;;
7557;SDS011;3820;51.098;13.716;2023-04-03T07:43:30;9.47;;;4.20;;
7557;SDS011;3820;51.098;13.716;2023-04-03T07:45:56;7.33;;;3.60;;
7557;SDS011;3820;51.098;13.716;2023-04-03T07:48:24;10.37;;;4.00;;
7557;SDS011;3820;51.098;13.716;2023-04-03T07:50:51;11.97;;;4.03;;
7557;SDS011;3820;51.098;13.716;2023-04-03T07:53:18;9.03;;;3.40;;
7557;SDS011;3820;51.098;13.716;2023-04-03T07:55:48;5.17;;;3.20;;
7557;SDS011;3820;51.098;13.716;2023-04-03T07:58:16;11.30;;;3.70;;
7557;SDS011;3820;51.098;13.716;2023-04-03T08:00:44;6.40;;;3.03;;
7557;SDS011;3820;51.098;13.716;2023-04-03T08:03:11;10.00;;;3.83;;
7557;SDS011;3820;51.098;13.716;2023-04-03T08:05:41;7.47;;;3.10;;
7557;SDS011;3820;51.098;13.716;2023-04-03T08:08:09;6.80;;;3.60;;
7557;SDS011;3820;51.098;13.716;2023-04-03T08:10:38;9.00;;;2.87;;
7557;SDS011;3820;51.098;13.716;2023-04-03T08:13:04;7.27;;;3.20;;
7557;SDS011;3820;51.098;13.716;2023-04-03T08:15:32;6.17;;;3.00;;
7557;SDS011;3820;51.098;13.716;2023-04-03T08:17:59;6.27;;;3.10;;
7557;SDS011;3820;51.098;13.716;2023-04-03T08:20:27;7.73;;;3.30;;
7557;SDS011;3820;51.098;13.716;2023-04-03T08:22:54;4.93;;;2.90;;
7557;SDS011;3820;51.098;13.716;2023-04-03T08:25:20;7.50;;;3.03;;
7557;SDS011;3820;51.098;13.716;2023-04-03T08:27:47;5.40;;;3.10;;
7557;SDS011;3820;51.098;13.716;2023-04-03T08:30:14;6.57;;;2.77;;
7557;SDS011;3820;51.098;13.716;2023-04-03T08:32:41;6.57;;;2.90;;
7557;SDS011;3820;51.098;13.716;2023-04-03T08:35:10;7.67;;;2.73;;
7557;SDS011;3820;51.098;13.716;2023-04-03T08:37:37;9.57;;;3.30;;
7557;SDS011;3820;51.098;13.716;2023-04-03T08:40:05;7.60;;;2.60;;
7557;SDS011;3820;51.098;13.716;2023-04-03T08:45:22;5.30;;;2.67;;
7557;SDS011;3820;51.098;13.716;2023-04-03T08:48:00;5.40;;;2.83;;
7557;SDS011;3820;51.098;13.716;2023-04-03T08:50:35;5.60;;;2.50;;
7557;SDS011;3820;51.098;13.716;2023-04-03T08:53:05;8.23;;;3.23;;
7557;SDS011;3820;51.098;13.716;2023-04-03T08:58:07;8.53;;;3.00;;
7557;SDS011;3820;51.098;13.716;2023-04-03T09:00:41;7.83;;;3.07;;
7557;SDS011;3820;51.098;13.716;2023-04-03T09:03:12;6.63;;;2.47;;
7557;SDS011;3820;51.098;13.716;2023-04-03T09:05:47;8.67;;;2.53;;
7557;SDS011;3820;51.098;13.716;2023-04-03T09:13:57;6.03;;;2.60;;
7557;SDS011;3820;51.098;13.716;2023-04-03T09:16:36;4.70;;;2.23;;
7557;SDS011;3820;51.098;13.716;2023-04-03T09:19:54;4.77;;;2.30;;
7557;SDS011;3820;51.098;13.716;2023-04-03T09:27:43;7.43;;;2.50;;
7557;SDS011;3820;51.098;13.716;2023-04-03T09:30:14;7.47;;;2.20;;
7557;SDS011;3820;51.098;13.716;2023-04-03T09:32:44;4.60;;;2.40;;
7557;SDS011;3820;51.098;13.716;2023-04-03T09:35:25;7.90;;;2.43;;
7557;SDS011;3820;51.098;13.716;2023-04-03T09:40:41;6.33;;;1.80;;
7557;SDS011;3820;51.098;13.716;2023-04-03T09:43:19;5.67;;;1.70;;
7557;SDS011;3820;51.098;13.716;2023-04-03T09:45:48;4.03;;;1.77;;
7557;SDS011;3820;51.098;13.716;2023-04-03T09:48:16;5.47;;;2.20;;
7557;SDS011;3820;51.098;13.716;2023-04-03T09:53:38;3.93;;;1.83;;
7557;SDS011;3820;51.098;13.716;2023-04-03T09:58:40;5.77;;;1.60;;
7557;SDS011;3820;51.098;13.716;2023-04-03T10:04:02;5.10;;;2.07;;
7557;SDS011;3820;51.098;13.716;2023-04-03T10:06:29;4.50;;;2.03;;
7557;SDS011;3820;51.098;13.716;2023-04-03T10:09:20;3.30;;;1.70;;
7557;SDS011;3820;51.098;13.716;2023-04-03T10:12:01;3.63;;;1.50;;
7557;SDS011;3820;51.098;13.716;2023-04-03T10:15:17;5.00;;;1.60;;
7557;SDS011;3820;51.098;13.716;2023-04-03T10:17:21;3.20;;;1.63;;
7557;SDS011;3820;51.098;13.716;2023-04-03T10:19:54;5.83;;;1.60;;
7557;SDS011;3820;51.098;13.716;2023-04-03T10:22:28;6.83;;;1.70;;
7557;SDS011;3820;51.098;13.716;2023-04-03T10:25:29;4.43;;;1.67;;
7557;SDS011;3820;51.098;13.716;2023-04-03T10:28:02;3.07;;;1.70;;
7557;SDS011;3820;51.098;13.716;2023-04-03T10:34:11;3.27;;;1.57;;
7557;SDS011;3820;51.098;13.716;2023-04-03T10:47:53;3.77;;;1.60;;
7557;SDS011;3820;51.098;13.716;2023-04-03T10:53:31;3.23;;;1.87;;
7557;SDS011;3820;51.098;13.716;2023-04-03T10:59:16;5.13;;;1.80;;
7557;SDS011;3820;51.098;13.716;2023-04-03T11:02:15;6.27;;;1.47;;
7557;SDS011;3820;51.098;13.716;2023-04-03T11:04:59;5.43;;;1.70;;
7557;SDS011;3820;51.098;13.716;2023-04-03T11:07:38;3.27;;;1.40;;
7557;SDS011;3820;51.098;13.716;2023-04-03T11:10:10;2.93;;;1.60;;
7557;SDS011;3820;51.098;13.716;2023-04-03T11:13:27;4.27;;;1.50;;
7557;SDS011;3820;51.098;13.716;2023-04-03T11:15:39;5.93;;;1.60;;
7557;SDS011;3820;51.098;13.716;2023-04-03T11:18:06;4.07;;;1.70;;
7557;SDS011;3820;51.098;13.716;2023-04-03T11:20:37;4.77;;;1.87;;
7557;SDS011;3820;51.098;13.716;2023-04-03T11:23:08;3.57;;;1.60;;
7557;SDS011;3820;51.098;13.716;2023-04-03T11:25:42;2.30;;;1.53;;
7557;SDS011;3820;51.098;13.716;2023-04-03T11:28:14;4.07;;;1.90;;
7557;SDS011;3820;51.098;13.716;2023-04-03T11:35:47;4.00;;;1.70;;
7557;SDS011;3820;51.098;13.716;2023-04-03T11:38:23;5.43;;;2.07;;
7557;SDS011;3820;51.098;13.716;2023-04-03T11:40:53;3.10;;;1.60;;
7557;SDS011;3820;51.098;13.716;2023-04-03T11:43:22;4.50;;;2.10;;
7557;SDS011;3820;51.098;13.716;2023-04-03T11:46:02;3.20;;;1.80;;
7557;SDS011;3820;51.098;13.716;2023-04-03T11:53:42;5.63;;;1.93;;
7557;SDS011;3820;51.098;13.716;2023-04-03T12:01:44;5.90;;;1.73;;
7557;SDS011;3820;51.098;13.716;2023-04-03T12:04:17;4.83;;;1.70;;
7557;SDS011;3820;51.098;13.716;2023-04-03T12:15:11;4.23;;;1.50;;
7557;SDS011;3820;51.098;13.716;2023-04-03T12:17:43;5.27;;;1.80;;
7557;SDS011;3820;51.098;13.716;2023-04-03T12:26:30;4.60;;;1.60;;
7557;SDS011;3820;51.098;13.716;2023-04-03T12:29:24;5.37;;;2.03;;
7557;SDS011;3820;51.098;13.716;2023-04-03T12:34:26;6.87;;;2.03;;
7557;SDS011;3820;51.098;13.716;2023-04-03T12:39:51;4.90;;;1.67;;
7557;SDS011;3820;51.098;13.716;2023-04-03T12:45:30;3.87;;;1.87;;
7557;SDS011;3820;51.098;13.716;2023-04-03T12:47:56;5.30;;;2.20;;
7557;SDS011;3820;51.098;13.716;2023-04-03T12:50:30;4.63;;;1.87;;
7557;SDS011;3820;51.098;13.716;2023-04-03T12:55:32;4.60;;;2.00;;
7557;SDS011;3820;51.098;13.716;2023-04-03T12:58:16;5.33;;;2.20;;
7557;SDS011;3820;51.098;13.716;2023-04-03T13:00:43;11.57;;;2.20;;
7557;SDS011;3820;51.098;13.716;2023-04-03T13:03:19;2.57;;;1.97;;
7557;SDS011;3820;51.098;13.716;2023-04-03T13:05:49;4.60;;;1.60;;
7557;SDS011;3820;51.098;13.716;2023-04-03T13:08:16;3.97;;;2.57;;
7557;SDS011;3820;51.098;13.716;2023-04-03T13:11:19;6.40;;;2.20;;
7557;SDS011;3820;51.098;13.716;2023-04-03T13:13:38;5.17;;;2.00;;
7557;SDS011;3820;51.098;13.716;2023-04-03T13:16:10;5.20;;;1.90;;
7557;SDS011;3820;51.098;13.716;2023-04-03T13:18:37;5.80;;;2.00;;
7557;SDS011;3820;51.098;13.716;2023-04-03T13:21:08;3.93;;;1.90;;
7557;SDS011;3820;51.098;13.716;2023-04-03T13:23:42;5.03;;;2.80;;
7557;SDS011;3820;51.098;13.716;2023-04-03T13:26:11;6.43;;;2.00;;
7557;SDS011;3820;51.098;13.716;2023-04-03T13:28:38;7.33;;;2.23;;
7557;SDS011;3820;51.098;13.716;2023-04-03T13:36:34;5.67;;;1.77;;
7557;SDS011;3820;51.098;13.716;2023-04-03T13:39:03;9.17;;;2.97;;
7557;SDS011;3820;51.098;13.716;2023-04-03T13:41:40;8.33;;;4.20;;
7557;SDS011;3820;51.098;13.716;2023-04-03T13:46:50;4.03;;;1.67;;
7557;SDS011;3820;51.098;13.716;2023-04-03T13:51:54;4.33;;;2.57;;
7557;SDS011;3820;51.098;13.716;2023-04-03T13:54:34;5.67;;;2.70;;
7557;SDS011;3820;51.098;13.716;2023-04-03T13:57:03;3.87;;;2.50;;
7557;SDS011;3820;51.098;13.716;2023-04-03T13:59:36;4.17;;;2.50;;
7557;SDS011;3820;51.098;13.716;2023-04-03T14:04:31;5.70;;;2.17;;
7557;SDS011;3820;51.098;13.716;2023-04-03T14:07:06;6.20;;;2.40;;
7557;SDS011;3820;51.098;13.716;2023-04-03T14:09:33;3.97;;;2.33;;
7557;SDS011;3820;51.098;13.716;2023-04-03T14:12:02;3.70;;;2.00;;
7557;SDS011;3820;51.098;13.716;2023-04-03T14:14:44;4.47;;;2.20;;
7557;SDS011;3820;51.098;13.716;2023-04-03T14:17:21;6.10;;;2.60;;
7557;SDS011;3820;51.098;13.716;2023-04-03T14:19:51;5.03;;;2.00;;
7557;SDS011;3820;51.098;13.716;2023-04-03T14:22:20;4.57;;;2.00;;
7557;SDS011;3820;51.098;13.716;2023-04-03T14:24:52;4.60;;;2.50;;
7557;SDS011;3820;51.098;13.716;2023-04-03T14:29:46;3.83;;;2.00;;
7557;SDS011;3820;51.098;13.716;2023-04-03T14:32:14;6.50;;;2.67;;
7557;SDS011;3820;51.098;13.716;2023-04-03T14:34:43;5.10;;;2.17;;
7557;SDS011;3820;51.098;13.716;2023-04-03T14:37:16;5.67;;;2.00;;
7557;SDS011;3820;51.098;13.716;2023-04-03T14:39:46;3.53;;;2.60;;
7557;SDS011;3820;51.098;13.716;2023-04-03T14:42:15;3.53;;;2.00;;
7557;SDS011;3820;51.098;13.716;2023-04-03T14:44:43;5.97;;;2.40;;
7557;SDS011;3820;51.098;13.716;2023-04-03T14:47:14;6.20;;;2.90;;
7557;SDS011;3820;51.098;13.716;2023-04-03T14:49:57;11.73;;;6.00;;
7557;SDS011;3820;51.098;13.716;2023-04-03T14:52:30;5.33;;;2.20;;
7557;SDS011;3820;51.098;13.716;2023-04-03T14:54:58;4.00;;;1.70;;
7557;SDS011;3820;51.098;13.716;2023-04-03T14:57:25;4.27;;;1.70;;
7557;SDS011;3820;51.098;13.716;2023-04-03T14:59:53;2.67;;;1.50;;
7557;SDS011;3820;51.098;13.716;2023-04-03T15:02:24;4.77;;;2.00;;
7557;SDS011;3820;51.098;13.716;2023-04-03T15:04:54;3.43;;;1.80;;
7557;SDS011;3820;51.098;13.716;2023-04-03T15:07:23;4.37;;;1.70;;
7557;SDS011;3820;51.098;13.716;2023-04-03T15:09:50;4.33;;;2.37;;
7557;SDS011;3820;51.098;13.716;2023-04-03T15:12:17;7.13;;;2.60;;
7557;SDS011;3820;51.098;13.716;2023-04-03T15:14:44;4.57;;;2.10;;
7557;SDS011;3820;51.098;13.716;2023-04-03T15:17:19;3.93;;;2.33;;
7557;SDS011;3820;51.098;13.716;2023-04-03T15:19:47;4.03;;;2.40;;
7557;SDS011;3820;51.098;13.716;2023-04-03T15:22:15;4.50;;;2.40;;
7557;SDS011;3820;51.098;13.716;2023-04-03T15:24:43;6.50;;;2.37;;
7557;SDS011;3820;51.098;13.716;2023-04-03T15:27:11;5.73;;;2.40;;
7557;SDS011;3820;51.098;13.716;2023-04-03T15:29:39;3.70;;;2.40;;
7557;SDS011;3820;51.098;13.716;2023-04-03T15:32:06;5.97;;;2.60;;
7557;SDS011;3820;51.098;13.716;2023-04-03T15:34:32;3.17;;;2.00;;
7557;SDS011;3820;51.098;13.716;2023-04-03T15:36:59;10.20;;;3.13;;
7557;SDS011;3820;51.098;13.716;2023-04-03T15:39:25;6.67;;;2.50;;
7557;SDS011;3820;51.098;13.716;2023-04-03T15:41:52;4.47;;;2.90;;
7557;SDS011;3820;51.098;13.716;2023-04-03T15:44:20;5.33;;;3.00;;
7557;SDS011;3820;51.098;13.716;2023-04-03T15:46:47;3.10;;;2.50;;
7557;SDS011;3820;51.098;13.716;2023-04-03T15:49:15;2.73;;;1.90;;
7557;SDS011;3820;51.098;13.716;2023-04-03T15:51:42;6.97;;;4.50;;
7557;SDS011;3820;51.098;13.716;2023-04-03T15:54:08;3.43;;;2.30;;
7557;SDS011;3820;51.098;13.716;2023-04-03T15:56:35;4.50;;;1.73;;
7557;SDS011;3820;51.098;13.716;2023-04-03T15:59:02;8.07;;;2.30;;
7557;SDS011;3820;51.098;13.716;2023-04-03T16:01:28;6.00;;;3.10;;
7557;SDS011;3820;51.098;13.716;2023-04-03T16:03:54;5.70;;;2.60;;
7557;SDS011;3820;51.098;13.716;2023-04-03T16:06:21;3.97;;;2.47;;
7557;SDS011;3820;51.098;13.716;2023-04-03T16:08:50;4.13;;;2.20;;
7557;SDS011;3820;51.098;13.716;2023-04-03T16:11:17;3.67;;;1.83;;
7557;SDS011;3820;51.098;13.716;2023-04-03T16:13:43;5.50;;;2.13;;
7557;SDS011;3820;51.098;13.716;2023-04-03T16:16:10;4.47;;;2.40;;
7557;SDS011;3820;51.098;13.716;2023-04-03T16:18:37;3.70;;;1.70;;
7557;SDS011;3820;51.098;13.716;2023-04-03T16:21:03;3.00;;;1.80;;
7557;SDS011;3820;51.098;13.716;2023-04-03T16:23:30;5.03;;;1.90;;
7557;SDS011;3820;51.098;13.716;2023-04-03T16:25:56;3.47;;;1.90;;
7557;SDS011;3820;51.098;13.716;2023-04-03T16:28:23;3.67;;;1.90;;
7557;SDS011;3820;51.098;13.716;2023-04-03T16:30:50;3.87;;;1.93;;
7557;SDS011;3820;51.098;13.716;2023-04-03T16:33:17;5.50;;;1.97;;
7557;SDS011;3820;51.098;13.716;2023-04-03T16:35:43;5.53;;;2.37;;
7557;SDS011;3820;51.098;13.716;2023-04-03T16:38:10;6.37;;;2.20;;
7557;SDS011;3820;51.098;13.716;2023-04-03T16:40:37;3.30;;;2.00;;
7557;SDS011;3820;51.098;13.716;2023-04-03T16:43:03;6.53;;;2.47;;
7557;SDS011;3820;51.098;13.716;2023-04-03T16:45:30;4.30;;;1.90;;
7557;SDS011;3820;51.098;13.716;2023-04-03T16:47:56;3.97;;;1.93;;
7557;SDS011;3820;51.098;13.716;2023-04-03T16:50:23;3.63;;;2.10;;
7557;SDS011;3820;51.098;13.716;2023-04-03T16:52:49;5.17;;;2.20;;
7557;SDS011;3820;51.098;13.716;2023-04-03T16:55:16;3.60;;;2.17;;
7557;SDS011;3820;51.098;13.716;2023-04-03T16:57:43;2.87;;;2.10;;
7557;SDS011;3820;51.098;13.716;2023-04-03T17:00:10;4.83;;;2.00;;
7557;SDS011;3820;51.098;13.716;2023-04-03T17:02:36;2.93;;;2.10;;
7557;SDS011;3820;51.098;13.716;2023-04-03T17:05:03;3.47;;;2.00;;
7557;SDS011;3820;51.098;13.716;2023-04-03T17:07:30;4.43;;;2.10;;
7557;SDS011;3820;51.098;13.716;2023-04-03T17:09:57;6.17;;;2.07;;
7557;SDS011;3820;51.098;13.716;2023-04-03T17:12:24;5.17;;;2.07;;